sensor_id;sensor_type;location;lat;lon;timestamp;P1;durP1;ratioP1;P2;durP2;ratioP2
20896;SDS011;10608;42.600;23.398;2022-12-18T00:01:24;33.60;;;32.20;;
20896;SDS011;10608;42.600;23.398;2022-12-18T00:03:52;51.03;;;48.83;;
20896;SDS011;10608;42.600;23.398;2022-12-18T00:06:19;38.70;;;37.10;;
20896;SDS011;10608;42.600;23.398;2022-12-18T00:08:45;50.03;;;47.93;;
20896;SDS011;10608;42.600;23.398;2022-12-18T00:11:16;47.87;;;45.87;;
20896;SDS011;10608;42.600;23.398;2022-12-18T00:13:42;48.60;;;46.57;;
20896;SDS011;10608;42.600;23.398;2022-12-18T00:16:12;55.27;;;52.93;;
20896;SDS011;10608;42.600;23.398;2022-12-18T00:18:39;53.10;;;50.87;;
20896;SDS011;10608;42.600;23.398;2022-12-18T00:21:06;60.17;;;57.60;;
20896;SDS011;10608;42.600;23.398;2022-12-18T00:23:34;66.50;;;63.70;;
20896;SDS011;10608;42.600;23.398;2022-12-18T00:26:01;68.17;;;65.27;;
20896;SDS011;10608;42.600;23.398;2022-12-18T00:28:27;58.33;;;55.83;;
20896;SDS011;10608;42.600;23.398;2022-12-18T00:31:02;79.30;;;75.93;;
20896;SDS011;10608;42.600;23.398;2022-12-18T00:33:29;80.80;;;77.37;;
20896;SDS011;10608;42.600;23.398;2022-12-18T00:35:59;81.27;;;77.77;;
20896;SDS011;10608;42.600;23.398;2022-12-18T00:38:29;65.73;;;62.93;;
20896;SDS011;10608;42.600;23.398;2022-12-18T00:40:55;71.50;;;68.50;;
20896;SDS011;10608;42.600;23.398;2022-12-18T00:43:20;68.30;;;65.40;;
20896;SDS011;10608;42.600;23.398;2022-12-18T00:45:46;67.17;;;64.33;;
20896;SDS011;10608;42.600;23.398;2022-12-18T00:48:11;65.40;;;62.60;;
20896;SDS011;10608;42.600;23.398;2022-12-18T00:50:37;63.47;;;60.77;;
20896;SDS011;10608;42.600;23.398;2022-12-18T00:53:03;66.23;;;63.40;;
20896;SDS011;10608;42.600;23.398;2022-12-18T00:55:29;65.83;;;63.00;;
20896;SDS011;10608;42.600;23.398;2022-12-18T00:57:54;61.33;;;58.73;;
20896;SDS011;10608;42.600;23.398;2022-12-18T01:00:19;63.53;;;60.73;;
20896;SDS011;10608;42.600;23.398;2022-12-18T01:02:45;67.70;;;64.80;;
20896;SDS011;10608;42.600;23.398;2022-12-18T01:05:11;58.40;;;55.90;;
20896;SDS011;10608;42.600;23.398;2022-12-18T01:07:38;75.77;;;72.57;;
20896;SDS011;10608;42.600;23.398;2022-12-18T01:10:04;63.13;;;60.43;;
20896;SDS011;10608;42.600;23.398;2022-12-18T01:12:31;72.00;;;68.90;;
20896;SDS011;10608;42.600;23.398;2022-12-18T01:14:57;62.57;;;59.87;;
20896;SDS011;10608;42.600;23.398;2022-12-18T01:17:22;51.43;;;49.27;;
20896;SDS011;10608;42.600;23.398;2022-12-18T01:19:48;39.97;;;38.30;;
20896;SDS011;10608;42.600;23.398;2022-12-18T01:22:14;37.00;;;35.47;;
20896;SDS011;10608;42.600;23.398;2022-12-18T01:24:39;40.53;;;38.87;;
20896;SDS011;10608;42.600;23.398;2022-12-18T01:27:04;42.20;;;40.40;;
20896;SDS011;10608;42.600;23.398;2022-12-18T01:29:30;42.63;;;40.83;;
20896;SDS011;10608;42.600;23.398;2022-12-18T01:31:56;43.07;;;41.30;;
20896;SDS011;10608;42.600;23.398;2022-12-18T01:34:22;53.73;;;51.47;;
20896;SDS011;10608;42.600;23.398;2022-12-18T01:36:48;48.33;;;46.30;;
20896;SDS011;10608;42.600;23.398;2022-12-18T01:39:14;38.43;;;36.83;;
20896;SDS011;10608;42.600;23.398;2022-12-18T01:41:40;34.10;;;32.67;;
20896;SDS011;10608;42.600;23.398;2022-12-18T01:47:14;31.43;;;30.10;;
20896;SDS011;10608;42.600;23.398;2022-12-18T01:49:43;28.83;;;27.63;;
20896;SDS011;10608;42.600;23.398;2022-12-18T01:52:08;35.73;;;34.20;;
20896;SDS011;10608;42.600;23.398;2022-12-18T01:54:34;38.93;;;37.33;;
20896;SDS011;10608;42.600;23.398;2022-12-18T01:56:59;37.13;;;35.57;;
20896;SDS011;10608;42.600;23.398;2022-12-18T01:59:26;38.13;;;36.57;;
20896;SDS011;10608;42.600;23.398;2022-12-18T02:01:52;37.63;;;36.10;;
20896;SDS011;10608;42.600;23.398;2022-12-18T02:04:21;30.57;;;29.33;;
20896;SDS011;10608;42.600;23.398;2022-12-18T02:06:55;23.80;;;22.83;;
20896;SDS011;10608;42.600;23.398;2022-12-18T02:09:34;24.80;;;23.80;;
20896;SDS011;10608;42.600;23.398;2022-12-18T02:12:17;25.10;;;24.07;;
20896;SDS011;10608;42.600;23.398;2022-12-18T02:17:38;27.17;;;26.07;;
20896;SDS011;10608;42.600;23.398;2022-12-18T02:26:11;31.97;;;30.67;;
20896;SDS011;10608;42.600;23.398;2022-12-18T02:28:44;32.03;;;30.73;;
20896;SDS011;10608;42.600;23.398;2022-12-18T02:31:16;29.07;;;27.87;;
20896;SDS011;10608;42.600;23.398;2022-12-18T02:33:46;31.93;;;30.63;;
20896;SDS011;10608;42.600;23.398;2022-12-18T02:36:14;29.80;;;28.60;;
20896;SDS011;10608;42.600;23.398;2022-12-18T02:38:42;30.60;;;29.37;;
20896;SDS011;10608;42.600;23.398;2022-12-18T02:41:09;25.23;;;24.23;;
20896;SDS011;10608;42.600;23.398;2022-12-18T02:43:35;25.23;;;24.23;;
20896;SDS011;10608;42.600;23.398;2022-12-18T02:46:01;24.63;;;23.63;;
20896;SDS011;10608;42.600;23.398;2022-12-18T02:49:26;24.93;;;23.93;;
20896;SDS011;10608;42.600;23.398;2022-12-18T02:51:54;23.53;;;22.60;;
20896;SDS011;10608;42.600;23.398;2022-12-18T03:07:44;21.93;;;21.03;;
20896;SDS011;10608;42.600;23.398;2022-12-18T03:10:13;27.67;;;26.57;;
20896;SDS011;10608;42.600;23.398;2022-12-18T03:12:47;40.17;;;38.57;;
20896;SDS011;10608;42.600;23.398;2022-12-18T03:15:25;31.97;;;30.67;;
20896;SDS011;10608;42.600;23.398;2022-12-18T03:17:57;34.20;;;32.80;;
20896;SDS011;10608;42.600;23.398;2022-12-18T03:20:26;36.73;;;35.23;;
20896;SDS011;10608;42.600;23.398;2022-12-18T03:22:58;38.80;;;37.20;;
20896;SDS011;10608;42.600;23.398;2022-12-18T03:25:29;39.83;;;38.20;;
20896;SDS011;10608;42.600;23.398;2022-12-18T03:27:58;41.03;;;39.33;;
20896;SDS011;10608;42.600;23.398;2022-12-18T03:30:26;41.60;;;39.90;;
20896;SDS011;10608;42.600;23.398;2022-12-18T03:33:01;47.83;;;45.80;;
20896;SDS011;10608;42.600;23.398;2022-12-18T03:35:33;43.07;;;41.27;;
20896;SDS011;10608;42.600;23.398;2022-12-18T03:38:03;39.97;;;38.37;;
20896;SDS011;10608;42.600;23.398;2022-12-18T03:40:35;32.70;;;31.40;;
20896;SDS011;10608;42.600;23.398;2022-12-18T03:46:06;29.70;;;28.50;;
20896;SDS011;10608;42.600;23.398;2022-12-18T03:48:44;33.03;;;31.70;;
20896;SDS011;10608;42.600;23.398;2022-12-18T03:54:02;36.00;;;34.50;;
20896;SDS011;10608;42.600;23.398;2022-12-18T03:56:33;41.23;;;39.53;;
20896;SDS011;10608;42.600;23.398;2022-12-18T03:59:02;38.10;;;36.53;;
20896;SDS011;10608;42.600;23.398;2022-12-18T04:01:34;44.73;;;42.93;;
20896;SDS011;10608;42.600;23.398;2022-12-18T04:04:03;53.97;;;51.67;;
20896;SDS011;10608;42.600;23.398;2022-12-18T04:06:30;54.33;;;52.03;;
20896;SDS011;10608;42.600;23.398;2022-12-18T04:09:02;58.07;;;55.47;;
20896;SDS011;10608;42.600;23.398;2022-12-18T04:11:29;57.17;;;54.70;;
20896;SDS011;10608;42.600;23.398;2022-12-18T04:13:57;57.27;;;54.83;;
20896;SDS011;10608;42.600;23.398;2022-12-18T04:16:24;51.70;;;49.53;;
20896;SDS011;10608;42.600;23.398;2022-12-18T04:18:52;46.47;;;44.57;;
20896;SDS011;10608;42.600;23.398;2022-12-18T04:21:19;47.73;;;45.77;;
20896;SDS011;10608;42.600;23.398;2022-12-18T04:23:45;52.13;;;49.97;;
20896;SDS011;10608;42.600;23.398;2022-12-18T04:26:10;44.83;;;43.00;;
20896;SDS011;10608;42.600;23.398;2022-12-18T04:28:36;40.03;;;38.37;;
20896;SDS011;10608;42.600;23.398;2022-12-18T04:31:03;40.13;;;38.50;;
20896;SDS011;10608;42.600;23.398;2022-12-18T04:33:29;34.70;;;33.30;;
20896;SDS011;10608;42.600;23.398;2022-12-18T04:35:54;36.00;;;34.57;;
20896;SDS011;10608;42.600;23.398;2022-12-18T04:38:20;34.83;;;33.40;;
20896;SDS011;10608;42.600;23.398;2022-12-18T04:40:45;38.47;;;36.87;;
20896;SDS011;10608;42.600;23.398;2022-12-18T04:43:11;37.13;;;35.60;;
20896;SDS011;10608;42.600;23.398;2022-12-18T04:45:36;33.80;;;32.43;;
20896;SDS011;10608;42.600;23.398;2022-12-18T04:48:05;34.30;;;32.90;;
20896;SDS011;10608;42.600;23.398;2022-12-18T04:50:36;31.90;;;30.60;;
20896;SDS011;10608;42.600;23.398;2022-12-18T04:53:02;37.27;;;35.73;;
20896;SDS011;10608;42.600;23.398;2022-12-18T04:55:27;36.00;;;34.53;;
20896;SDS011;10608;42.600;23.398;2022-12-18T04:57:53;32.10;;;30.73;;
20896;SDS011;10608;42.600;23.398;2022-12-18T05:00:18;28.83;;;27.67;;
20896;SDS011;10608;42.600;23.398;2022-12-18T05:02:44;25.77;;;24.73;;
20896;SDS011;10608;42.600;23.398;2022-12-18T05:05:10;34.50;;;33.10;;
20896;SDS011;10608;42.600;23.398;2022-12-18T05:07:35;25.50;;;24.47;;
20896;SDS011;10608;42.600;23.398;2022-12-18T05:10:01;30.47;;;29.23;;
20896;SDS011;10608;42.600;23.398;2022-12-18T05:12:26;28.73;;;27.57;;
20896;SDS011;10608;42.600;23.398;2022-12-18T05:14:52;27.70;;;26.60;;
20896;SDS011;10608;42.600;23.398;2022-12-18T05:17:17;35.33;;;33.93;;
20896;SDS011;10608;42.600;23.398;2022-12-18T05:19:43;39.50;;;37.87;;
20896;SDS011;10608;42.600;23.398;2022-12-18T05:22:08;34.33;;;32.93;;
20896;SDS011;10608;42.600;23.398;2022-12-18T05:24:34;38.60;;;37.00;;
20896;SDS011;10608;42.600;23.398;2022-12-18T05:27:00;41.87;;;40.17;;
20896;SDS011;10608;42.600;23.398;2022-12-18T05:29:25;39.57;;;37.97;;
20896;SDS011;10608;42.600;23.398;2022-12-18T05:31:51;45.87;;;43.97;;
20896;SDS011;10608;42.600;23.398;2022-12-18T05:34:16;49.93;;;47.83;;
20896;SDS011;10608;42.600;23.398;2022-12-18T05:36:42;46.77;;;44.87;;
20896;SDS011;10608;42.600;23.398;2022-12-18T05:39:07;39.33;;;37.73;;
20896;SDS011;10608;42.600;23.398;2022-12-18T05:41:33;42.23;;;40.50;;
20896;SDS011;10608;42.600;23.398;2022-12-18T05:43:58;45.57;;;43.67;;
20896;SDS011;10608;42.600;23.398;2022-12-18T05:46:24;44.50;;;42.67;;
20896;SDS011;10608;42.600;23.398;2022-12-18T05:48:50;45.93;;;44.03;;
20896;SDS011;10608;42.600;23.398;2022-12-18T05:51:16;50.53;;;48.43;;
20896;SDS011;10608;42.600;23.398;2022-12-18T05:53:43;44.23;;;42.43;;
20896;SDS011;10608;42.600;23.398;2022-12-18T05:56:11;36.87;;;35.37;;
20896;SDS011;10608;42.600;23.398;2022-12-18T05:58:40;44.30;;;42.50;;
20896;SDS011;10608;42.600;23.398;2022-12-18T06:01:13;48.87;;;46.87;;
20896;SDS011;10608;42.600;23.398;2022-12-18T06:03:41;48.47;;;46.47;;
20896;SDS011;10608;42.600;23.398;2022-12-18T06:06:17;50.97;;;48.87;;
20896;SDS011;10608;42.600;23.398;2022-12-18T06:08:47;43.97;;;42.17;;
20896;SDS011;10608;42.600;23.398;2022-12-18T06:11:15;41.17;;;39.50;;
20896;SDS011;10608;42.600;23.398;2022-12-18T06:13:42;39.83;;;38.20;;
20896;SDS011;10608;42.600;23.398;2022-12-18T06:16:08;35.43;;;34.00;;
20896;SDS011;10608;42.600;23.398;2022-12-18T06:18:33;34.03;;;32.63;;
20896;SDS011;10608;42.600;23.398;2022-12-18T06:20:59;44.57;;;42.73;;
20896;SDS011;10608;42.600;23.398;2022-12-18T06:23:25;26.27;;;25.20;;
20896;SDS011;10608;42.600;23.398;2022-12-18T06:25:51;26.93;;;25.83;;
20896;SDS011;10608;42.600;23.398;2022-12-18T06:28:16;22.97;;;22.07;;
20896;SDS011;10608;42.600;23.398;2022-12-18T06:30:45;25.70;;;24.70;;
20896;SDS011;10608;42.600;23.398;2022-12-18T06:33:12;24.23;;;23.23;;
20896;SDS011;10608;42.600;23.398;2022-12-18T06:35:37;28.27;;;27.13;;
20896;SDS011;10608;42.600;23.398;2022-12-18T06:38:03;20.13;;;19.33;;
20896;SDS011;10608;42.600;23.398;2022-12-18T06:40:28;21.37;;;20.50;;
20896;SDS011;10608;42.600;23.398;2022-12-18T06:42:54;23.00;;;22.10;;
20896;SDS011;10608;42.600;23.398;2022-12-18T06:45:19;25.90;;;24.90;;
20896;SDS011;10608;42.600;23.398;2022-12-18T06:47:45;26.40;;;25.30;;
20896;SDS011;10608;42.600;23.398;2022-12-18T06:50:11;25.87;;;24.87;;
20896;SDS011;10608;42.600;23.398;2022-12-18T06:52:37;34.23;;;32.73;;
20896;SDS011;10608;42.600;23.398;2022-12-18T06:55:04;33.63;;;32.23;;
20896;SDS011;10608;42.600;23.398;2022-12-18T06:57:30;31.97;;;30.67;;
20896;SDS011;10608;42.600;23.398;2022-12-18T06:59:55;25.17;;;24.17;;
20896;SDS011;10608;42.600;23.398;2022-12-18T07:02:21;21.03;;;20.20;;
20896;SDS011;10608;42.600;23.398;2022-12-18T07:04:46;20.97;;;20.07;;
20896;SDS011;10608;42.600;23.398;2022-12-18T07:07:14;19.63;;;18.83;;
20896;SDS011;10608;42.600;23.398;2022-12-18T07:09:40;19.13;;;18.37;;
20896;SDS011;10608;42.600;23.398;2022-12-18T07:12:05;18.13;;;17.43;;
20896;SDS011;10608;42.600;23.398;2022-12-18T07:14:32;24.47;;;23.47;;
20896;SDS011;10608;42.600;23.398;2022-12-18T07:16:58;26.63;;;25.53;;
20896;SDS011;10608;42.600;23.398;2022-12-18T07:19:23;24.90;;;23.90;;
20896;SDS011;10608;42.600;23.398;2022-12-18T07:21:49;27.23;;;26.13;;
20896;SDS011;10608;42.600;23.398;2022-12-18T07:24:16;24.70;;;23.70;;
20896;SDS011;10608;42.600;23.398;2022-12-18T07:26:42;19.10;;;18.37;;
20896;SDS011;10608;42.600;23.398;2022-12-18T07:29:07;19.30;;;18.53;;
20896;SDS011;10608;42.600;23.398;2022-12-18T07:31:33;22.70;;;21.80;;
20896;SDS011;10608;42.600;23.398;2022-12-18T07:33:58;21.80;;;20.93;;
20896;SDS011;10608;42.600;23.398;2022-12-18T07:36:24;24.27;;;23.27;;
20896;SDS011;10608;42.600;23.398;2022-12-18T07:38:50;22.07;;;21.17;;
20896;SDS011;10608;42.600;23.398;2022-12-18T07:41:17;25.97;;;24.90;;
20896;SDS011;10608;42.600;23.398;2022-12-18T07:43:43;23.27;;;22.33;;
20896;SDS011;10608;42.600;23.398;2022-12-18T07:46:09;22.87;;;21.97;;
20896;SDS011;10608;42.600;23.398;2022-12-18T07:48:38;25.27;;;24.27;;
20896;SDS011;10608;42.600;23.398;2022-12-18T07:51:08;22.13;;;21.23;;
20896;SDS011;10608;42.600;23.398;2022-12-18T07:53:41;19.10;;;18.30;;
20896;SDS011;10608;42.600;23.398;2022-12-18T07:56:08;21.17;;;20.30;;
20896;SDS011;10608;42.600;23.398;2022-12-18T07:58:35;22.77;;;21.83;;
20896;SDS011;10608;42.600;23.398;2022-12-18T08:01:04;19.40;;;18.60;;
20896;SDS011;10608;42.600;23.398;2022-12-18T08:03:34;24.20;;;23.20;;
20896;SDS011;10608;42.600;23.398;2022-12-18T08:06:01;18.57;;;17.67;;
20896;SDS011;10608;42.600;23.398;2022-12-18T08:08:32;23.50;;;22.40;;
20896;SDS011;10608;42.600;23.398;2022-12-18T08:10:58;16.03;;;15.43;;
20896;SDS011;10608;42.600;23.398;2022-12-18T08:13:24;18.50;;;17.70;;
20896;SDS011;10608;42.600;23.398;2022-12-18T08:15:56;17.50;;;16.80;;
20896;SDS011;10608;42.600;23.398;2022-12-18T08:18:26;15.63;;;15.00;;
20896;SDS011;10608;42.600;23.398;2022-12-18T08:20:52;17.07;;;16.37;;
20896;SDS011;10608;42.600;23.398;2022-12-18T08:23:17;17.17;;;16.47;;
20896;SDS011;10608;42.600;23.398;2022-12-18T08:25:43;15.90;;;15.30;;
20896;SDS011;10608;42.600;23.398;2022-12-18T08:28:09;18.57;;;17.80;;
20896;SDS011;10608;42.600;23.398;2022-12-18T08:30:35;22.07;;;21.17;;
20896;SDS011;10608;42.600;23.398;2022-12-18T08:33:00;18.00;;;17.30;;
20896;SDS011;10608;42.600;23.398;2022-12-18T08:35:26;16.50;;;15.80;;
20896;SDS011;10608;42.600;23.398;2022-12-18T08:37:52;15.90;;;15.30;;
20896;SDS011;10608;42.600;23.398;2022-12-18T08:40:17;20.30;;;19.50;;
20896;SDS011;10608;42.600;23.398;2022-12-18T08:42:42;21.93;;;21.03;;
20896;SDS011;10608;42.600;23.398;2022-12-18T08:45:27;24.17;;;23.17;;
20896;SDS011;10608;42.600;23.398;2022-12-18T08:47:52;15.40;;;14.80;;
20896;SDS011;10608;42.600;23.398;2022-12-18T08:50:18;17.73;;;17.03;;
20896;SDS011;10608;42.600;23.398;2022-12-18T08:52:44;18.63;;;17.83;;
20896;SDS011;10608;42.600;23.398;2022-12-18T08:55:10;20.60;;;19.80;;
20896;SDS011;10608;42.600;23.398;2022-12-18T08:57:38;16.70;;;16.03;;
20896;SDS011;10608;42.600;23.398;2022-12-18T09:00:04;18.53;;;17.83;;
20896;SDS011;10608;42.600;23.398;2022-12-18T09:02:30;18.87;;;18.13;;
20896;SDS011;10608;42.600;23.398;2022-12-18T09:04:55;19.20;;;18.40;;
20896;SDS011;10608;42.600;23.398;2022-12-18T09:07:21;17.47;;;16.77;;
20896;SDS011;10608;42.600;23.398;2022-12-18T09:09:46;20.87;;;20.07;;
20896;SDS011;10608;42.600;23.398;2022-12-18T09:12:11;20.30;;;19.47;;
20896;SDS011;10608;42.600;23.398;2022-12-18T09:14:37;23.63;;;22.67;;
20896;SDS011;10608;42.600;23.398;2022-12-18T09:17:03;27.00;;;25.87;;
20896;SDS011;10608;42.600;23.398;2022-12-18T09:19:28;26.40;;;25.33;;
20896;SDS011;10608;42.600;23.398;2022-12-18T09:21:54;20.93;;;20.03;;
20896;SDS011;10608;42.600;23.398;2022-12-18T09:24:19;18.03;;;17.33;;
20896;SDS011;10608;42.600;23.398;2022-12-18T09:26:44;18.80;;;18.07;;
20896;SDS011;10608;42.600;23.398;2022-12-18T09:29:10;17.57;;;16.87;;
20896;SDS011;10608;42.600;23.398;2022-12-18T09:31:36;15.03;;;14.43;;
20896;SDS011;10608;42.600;23.398;2022-12-18T09:34:03;17.40;;;16.70;;
20896;SDS011;10608;42.600;23.398;2022-12-18T09:36:32;16.17;;;15.57;;
20896;SDS011;10608;42.600;23.398;2022-12-18T09:38:57;17.30;;;16.50;;
20896;SDS011;10608;42.600;23.398;2022-12-18T09:44:28;18.27;;;17.57;;
20896;SDS011;10608;42.600;23.398;2022-12-18T09:47:06;17.57;;;16.87;;
20896;SDS011;10608;42.600;23.398;2022-12-18T09:49:43;17.20;;;16.47;;
20896;SDS011;10608;42.600;23.398;2022-12-18T09:55:00;15.87;;;14.97;;
20896;SDS011;10608;42.600;23.398;2022-12-18T09:57:33;17.83;;;17.13;;
20896;SDS011;10608;42.600;23.398;2022-12-18T10:02:42;24.97;;;23.97;;
20896;SDS011;10608;42.600;23.398;2022-12-18T10:05:15;16.10;;;15.50;;
20896;SDS011;10608;42.600;23.398;2022-12-18T10:10:52;15.13;;;14.53;;
20896;SDS011;10608;42.600;23.398;2022-12-18T10:21:21;26.60;;;25.50;;
20896;SDS011;10608;42.600;23.398;2022-12-18T10:26:59;14.50;;;13.93;;
20896;SDS011;10608;42.600;23.398;2022-12-18T10:29:35;14.87;;;14.27;;
20896;SDS011;10608;42.600;23.398;2022-12-18T10:32:02;16.77;;;16.10;;
20896;SDS011;10608;42.600;23.398;2022-12-18T10:34:27;15.13;;;14.53;;
20896;SDS011;10608;42.600;23.398;2022-12-18T10:36:52;17.53;;;16.83;;
20896;SDS011;10608;42.600;23.398;2022-12-18T10:39:20;15.83;;;15.23;;
20896;SDS011;10608;42.600;23.398;2022-12-18T10:41:51;19.93;;;19.13;;
20896;SDS011;10608;42.600;23.398;2022-12-18T10:44:23;20.60;;;19.80;;
20896;SDS011;10608;42.600;23.398;2022-12-18T10:46:53;20.50;;;19.70;;
20896;SDS011;10608;42.600;23.398;2022-12-18T10:49:24;18.47;;;17.77;;
20896;SDS011;10608;42.600;23.398;2022-12-18T10:51:54;15.03;;;14.43;;
20896;SDS011;10608;42.600;23.398;2022-12-18T10:54:37;17.60;;;16.90;;
20896;SDS011;10608;42.600;23.398;2022-12-18T10:57:16;23.97;;;22.97;;
20896;SDS011;10608;42.600;23.398;2022-12-18T10:59:52;17.40;;;16.70;;
20896;SDS011;10608;42.600;23.398;2022-12-18T11:05:23;20.37;;;19.53;;
20896;SDS011;10608;42.600;23.398;2022-12-18T11:07:59;33.93;;;32.43;;
20896;SDS011;10608;42.600;23.398;2022-12-18T11:10:32;15.90;;;15.30;;
20896;SDS011;10608;42.600;23.398;2022-12-18T11:13:10;16.57;;;15.87;;
20896;SDS011;10608;42.600;23.398;2022-12-18T11:15:39;16.17;;;15.37;;
20896;SDS011;10608;42.600;23.398;2022-12-18T11:18:14;15.80;;;15.20;;
20896;SDS011;10608;42.600;23.398;2022-12-18T11:20:43;13.97;;;13.43;;
20896;SDS011;10608;42.600;23.398;2022-12-18T11:23:16;38.23;;;36.57;;
20896;SDS011;10608;42.600;23.398;2022-12-18T11:25:50;15.80;;;15.20;;
20896;SDS011;10608;42.600;23.398;2022-12-18T11:36:39;14.73;;;14.13;;
20896;SDS011;10608;42.600;23.398;2022-12-18T11:39:13;12.87;;;12.37;;
20896;SDS011;10608;42.600;23.398;2022-12-18T11:42:00;28.80;;;27.50;;
20896;SDS011;10608;42.600;23.398;2022-12-18T11:44:50;17.77;;;17.07;;
20896;SDS011;10608;42.600;23.398;2022-12-18T11:50:03;12.67;;;12.17;;
20896;SDS011;10608;42.600;23.398;2022-12-18T11:52:37;14.77;;;14.17;;
20896;SDS011;10608;42.600;23.398;2022-12-18T11:55:09;17.17;;;16.47;;
20896;SDS011;10608;42.600;23.398;2022-12-18T12:00:28;22.03;;;21.13;;
20896;SDS011;10608;42.600;23.398;2022-12-18T12:05:40;15.17;;;14.57;;
20896;SDS011;10608;42.600;23.398;2022-12-18T12:11:02;20.17;;;19.37;;
20896;SDS011;10608;42.600;23.398;2022-12-18T12:16:37;12.43;;;11.93;;
20896;SDS011;10608;42.600;23.398;2022-12-18T12:25:02;13.07;;;12.57;;
20896;SDS011;10608;42.600;23.398;2022-12-18T12:38:09;12.80;;;12.30;;
20896;SDS011;10608;42.600;23.398;2022-12-18T12:40:57;14.87;;;14.27;;
20896;SDS011;10608;42.600;23.398;2022-12-18T12:43:28;12.30;;;11.80;;
20896;SDS011;10608;42.600;23.398;2022-12-18T12:46:11;12.53;;;12.03;;
20896;SDS011;10608;42.600;23.398;2022-12-18T12:48:52;12.60;;;12.10;;
20896;SDS011;10608;42.600;23.398;2022-12-18T12:53:54;13.43;;;12.93;;
20896;SDS011;10608;42.600;23.398;2022-12-18T12:56:22;14.33;;;13.73;;
20896;SDS011;10608;42.600;23.398;2022-12-18T12:59:04;13.13;;;12.63;;
20896;SDS011;10608;42.600;23.398;2022-12-18T13:01:54;13.20;;;12.70;;
20896;SDS011;10608;42.600;23.398;2022-12-18T13:04:36;14.07;;;13.47;;
20896;SDS011;10608;42.600;23.398;2022-12-18T13:12:36;12.83;;;12.33;;
20896;SDS011;10608;42.600;23.398;2022-12-18T13:20:37;13.70;;;13.20;;
20896;SDS011;10608;42.600;23.398;2022-12-18T13:25:51;14.07;;;13.57;;
20896;SDS011;10608;42.600;23.398;2022-12-18T13:30:58;15.67;;;15.07;;
20896;SDS011;10608;42.600;23.398;2022-12-18T13:35:55;15.10;;;14.30;;
20896;SDS011;10608;42.600;23.398;2022-12-18T13:38:44;12.73;;;12.23;;
20896;SDS011;10608;42.600;23.398;2022-12-18T13:43:50;14.33;;;13.73;;
20896;SDS011;10608;42.600;23.398;2022-12-18T13:46:19;13.37;;;12.87;;
20896;SDS011;10608;42.600;23.398;2022-12-18T13:51:46;15.93;;;15.03;;
20896;SDS011;10608;42.600;23.398;2022-12-18T13:57:02;15.23;;;14.63;;
20896;SDS011;10608;42.600;23.398;2022-12-18T13:59:38;17.47;;;16.77;;
20896;SDS011;10608;42.600;23.398;2022-12-18T14:02:24;18.83;;;18.10;;
20896;SDS011;10608;42.600;23.398;2022-12-18T14:04:51;16.33;;;15.70;;
20896;SDS011;10608;42.600;23.398;2022-12-18T14:09:57;16.10;;;15.50;;
20896;SDS011;10608;42.600;23.398;2022-12-18T14:12:27;18.50;;;17.80;;
20896;SDS011;10608;42.600;23.398;2022-12-18T14:17:58;13.83;;;13.33;;
20896;SDS011;10608;42.600;23.398;2022-12-18T14:20:27;13.30;;;12.80;;
20896;SDS011;10608;42.600;23.398;2022-12-18T14:22:54;13.43;;;12.93;;
20896;SDS011;10608;42.600;23.398;2022-12-18T14:25:22;14.17;;;13.60;;
20896;SDS011;10608;42.600;23.398;2022-12-18T14:28:42;14.07;;;13.47;;
20896;SDS011;10608;42.600;23.398;2022-12-18T14:30:40;17.40;;;16.70;;
20896;SDS011;10608;42.600;23.398;2022-12-18T14:33:11;18.77;;;17.97;;
20896;SDS011;10608;42.600;23.398;2022-12-18T14:35:39;19.10;;;18.20;;
20896;SDS011;10608;42.600;23.398;2022-12-18T14:40:55;15.93;;;15.23;;
20896;SDS011;10608;42.600;23.398;2022-12-18T14:43:33;12.90;;;12.40;;
20896;SDS011;10608;42.600;23.398;2022-12-18T14:46:03;14.07;;;13.57;;
20896;SDS011;10608;42.600;23.398;2022-12-18T14:48:41;15.57;;;14.97;;
20896;SDS011;10608;42.600;23.398;2022-12-18T14:51:18;16.50;;;15.80;;
20896;SDS011;10608;42.600;23.398;2022-12-18T14:53:46;15.03;;;14.43;;
20896;SDS011;10608;42.600;23.398;2022-12-18T14:56:14;14.80;;;14.20;;
20896;SDS011;10608;42.600;23.398;2022-12-18T14:58:49;13.40;;;12.80;;
20896;SDS011;10608;42.600;23.398;2022-12-18T15:01:44;12.43;;;11.93;;
20896;SDS011;10608;42.600;23.398;2022-12-18T15:04:28;13.67;;;13.17;;
20896;SDS011;10608;42.600;23.398;2022-12-18T15:09:28;14.33;;;13.73;;
20896;SDS011;10608;42.600;23.398;2022-12-18T15:11:57;21.93;;;20.93;;
20896;SDS011;10608;42.600;23.398;2022-12-18T15:16:57;15.47;;;14.87;;
20896;SDS011;10608;42.600;23.398;2022-12-18T15:19:35;14.07;;;13.57;;
20896;SDS011;10608;42.600;23.398;2022-12-18T15:22:15;13.80;;;13.30;;
20896;SDS011;10608;42.600;23.398;2022-12-18T15:24:42;11.50;;;11.10;;
20896;SDS011;10608;42.600;23.398;2022-12-18T15:27:19;13.03;;;12.53;;
20896;SDS011;10608;42.600;23.398;2022-12-18T15:32:39;13.43;;;12.93;;
20896;SDS011;10608;42.600;23.398;2022-12-18T15:35:13;13.50;;;13.00;;
20896;SDS011;10608;42.600;23.398;2022-12-18T15:37:42;14.00;;;13.43;;
20896;SDS011;10608;42.600;23.398;2022-12-18T15:40:12;13.10;;;12.60;;
20896;SDS011;10608;42.600;23.398;2022-12-18T15:42:43;12.00;;;11.50;;
20896;SDS011;10608;42.600;23.398;2022-12-18T15:45:28;12.70;;;12.20;;
20896;SDS011;10608;42.600;23.398;2022-12-18T15:47:53;12.03;;;11.53;;
20896;SDS011;10608;42.600;23.398;2022-12-18T15:50:19;14.77;;;14.17;;
20896;SDS011;10608;42.600;23.398;2022-12-18T15:52:45;12.60;;;12.10;;
20896;SDS011;10608;42.600;23.398;2022-12-18T15:55:15;13.50;;;13.00;;
20896;SDS011;10608;42.600;23.398;2022-12-18T15:58:05;20.53;;;19.63;;
20896;SDS011;10608;42.600;23.398;2022-12-18T16:00:32;20.87;;;19.93;;
20896;SDS011;10608;42.600;23.398;2022-12-18T16:03:00;16.90;;;16.20;;
20896;SDS011;10608;42.600;23.398;2022-12-18T16:05:26;19.00;;;18.13;;
20896;SDS011;10608;42.600;23.398;2022-12-18T16:07:52;14.50;;;13.90;;
20896;SDS011;10608;42.600;23.398;2022-12-18T16:10:18;17.07;;;16.37;;
20896;SDS011;10608;42.600;23.398;2022-12-18T16:12:44;15.93;;;15.23;;
20896;SDS011;10608;42.600;23.398;2022-12-18T16:15:10;14.17;;;13.57;;
20896;SDS011;10608;42.600;23.398;2022-12-18T16:17:40;14.20;;;13.60;;
20896;SDS011;10608;42.600;23.398;2022-12-18T16:20:11;12.97;;;12.47;;
20896;SDS011;10608;42.600;23.398;2022-12-18T16:22:40;13.00;;;12.40;;
20896;SDS011;10608;42.600;23.398;2022-12-18T16:25:10;12.30;;;11.80;;
20896;SDS011;10608;42.600;23.398;2022-12-18T16:27:41;13.80;;;13.30;;
20896;SDS011;10608;42.600;23.398;2022-12-18T16:30:08;15.23;;;14.63;;
20896;SDS011;10608;42.600;23.398;2022-12-18T16:32:44;12.83;;;12.33;;
20896;SDS011;10608;42.600;23.398;2022-12-18T16:35:11;13.43;;;12.93;;
20896;SDS011;10608;42.600;23.398;2022-12-18T16:37:37;16.07;;;15.47;;
20896;SDS011;10608;42.600;23.398;2022-12-18T16:40:03;12.83;;;12.33;;
20896;SDS011;10608;42.600;23.398;2022-12-18T16:42:29;13.00;;;12.50;;